Time;durP1;ratioP1;P1;durP2;ratioP2;P2;SDS_P1;SDS_P2;PMS_P1;PMS_P2;Temp;Humidity;BMP_temperature;BMP_pressure;BME280_temperature;BME280_humidity;BME280_pressure;Samples;Min_cycle;Max_cycle;Signal;HPM_P1;HPM_P2
2021/07/02 00:01:41;;;;;;;50.15;24.30;;;;;;;;;;5013936;28;20030;-65
2021/07/02 00:04:06;;;;;;;50.50;25.27;;;;;;;;;;5013519;28;20080;-65
2021/07/02 00:06:33;;;;;;;48.80;24.98;;;;;;;;;;5018705;28;20046;-65
2021/07/02 00:08:58;;;;;;;52.65;25.60;;;;;;;;;;5015941;28;20056;-65
2021/07/02 00:11:24;;;;;;;47.75;22.40;;;;;;;;;;5012884;28;20352;-65
2021/07/02 00:13:49;;;;;;;44.97;23.38;;;;;;;;;;5016274;28;20412;-65
2021/07/02 00:16:15;;;;;;;36.22;17.80;;;;;;;;;;5019069;28;20021;-65
2021/07/02 00:18:40;;;;;;;26.30;14.38;;;;;;;;;;5012304;28;20680;-65
2021/07/02 00:21:06;;;;;;;26.55;13.52;;;;;;;;;;5010023;28;20552;-66
2021/07/02 00:23:32;;;;;;;27.52;12.73;;;;;;;;;;5017231;28;20021;-65
2021/07/02 00:25:57;;;;;;;24.73;12.10;;;;;;;;;;5015983;28;20029;-66
2021/07/02 00:28:23;;;;;;;23.38;10.60;;;;;;;;;;5011566;28;20049;-66
2021/07/02 00:30:49;;;;;;;16.17;9.05;;;;;;;;;;5017144;28;20037;-66
2021/07/02 00:33:15;;;;;;;19.67;9.65;;;;;;;;;;5017792;28;20034;-66
2021/07/02 00:35:43;;;;;;;24.63;9.45;;;;;;;;;;5020261;28;20072;-65
2021/07/02 00:38:09;;;;;;;16.58;8.68;;;;;;;;;;5012023;28;20049;-65
2021/07/02 00:40:34;;;;;;;14.57;8.35;;;;;;;;;;5013792;28;20077;-65
2021/07/02 00:43:00;;;;;;;18.05;8.07;;;;;;;;;;5019479;28;20037;-65
2021/07/02 00:45:26;;;;;;;15.52;8.05;;;;;;;;;;5021539;28;20515;-66
2021/07/02 00:47:52;;;;;;;15.25;7.63;;;;;;;;;;5014123;28;20033;-65
2021/07/02 00:50:17;;;;;;;14.38;8.32;;;;;;;;;;5019220;28;20034;-66
2021/07/02 00:52:43;;;;;;;15.68;7.63;;;;;;;;;;5013733;28;20028;-65
2021/07/02 00:55:09;;;;;;;19.20;8.45;;;;;;;;;;5012096;28;20040;-65
2021/07/02 00:57:36;;;;;;;14.02;7.35;;;;;;;;;;5017788;28;20025;-65
2021/07/02 01:00:08;;;;;;;13.43;8.05;;;;;;;;;;5014640;28;20508;-65
2021/07/02 01:02:33;;;;;;;15.02;8.15;;;;;;;;;;5010756;28;20381;-66
2021/07/02 01:04:59;;;;;;;12.10;7.50;;;;;;;;;;5014590;28;20041;-65
2021/07/02 01:07:25;;;;;;;13.35;8.13;;;;;;;;;;5013701;28;20041;-65
2021/07/02 01:09:51;;;;;;;14.07;7.47;;;;;;;;;;5017619;28;20026;-66
2021/07/02 01:12:16;;;;;;;16.83;7.95;;;;;;;;;;5011503;28;20030;-65
2021/07/02 01:14:42;;;;;;;16.27;8.70;;;;;;;;;;5020758;28;20052;-66
2021/07/02 01:17:08;;;;;;;13.93;7.75;;;;;;;;;;5017825;28;20460;-65
2021/07/02 01:19:33;;;;;;;14.80;8.25;;;;;;;;;;5008754;28;20101;-66
2021/07/02 01:21:59;;;;;;;13.85;7.22;;;;;;;;;;5008441;28;20494;-65
2021/07/02 01:24:25;;;;;;;15.32;7.75;;;;;;;;;;5012342;28;20030;-65
2021/07/02 01:26:51;;;;;;;16.20;8.07;;;;;;;;;;5013985;28;20029;-65
2021/07/02 01:29:18;;;;;;;14.15;8.23;;;;;;;;;;5016683;28;20547;-64
2021/07/02 01:31:44;;;;;;;14.70;7.90;;;;;;;;;;5015668;28;20030;-65
2021/07/02 01:34:10;;;;;;;12.88;7.43;;;;;;;;;;5015641;28;20037;-65
2021/07/02 01:36:35;;;;;;;18.77;8.45;;;;;;;;;;5010879;28;20041;-65
2021/07/02 01:39:01;;;;;;;12.98;8.23;;;;;;;;;;5014432;28;20105;-64
2021/07/02 01:41:26;;;;;;;14.77;7.57;;;;;;;;;;5018263;28;20022;-64
2021/07/02 01:43:52;;;;;;;16.67;8.18;;;;;;;;;;5014014;28;20120;-65
2021/07/02 01:46:17;;;;;;;16.88;8.18;;;;;;;;;;5017389;28;20103;-65
2021/07/02 01:48:44;;;;;;;16.33;7.85;;;;;;;;;;5017192;28;20051;-65
2021/07/02 01:51:10;;;;;;;12.70;7.80;;;;;;;;;;5014329;28;20033;-65
2021/07/02 01:53:36;;;;;;;13.13;7.20;;;;;;;;;;5018166;28;20033;-66
2021/07/02 01:56:02;;;;;;;13.35;8.25;;;;;;;;;;5012451;28;20030;-65
2021/07/02 01:58:27;;;;;;;15.80;7.75;;;;;;;;;;5010698;28;20036;-65
2021/07/02 02:00:53;;;;;;;17.33;7.25;;;;;;;;;;5019273;28;20029;-65
2021/07/02 02:03:19;;;;;;;15.60;7.13;;;;;;;;;;5019952;28;20108;-65
2021/07/02 02:05:44;;;;;;;13.75;7.47;;;;;;;;;;5016277;28;20029;-65
2021/07/02 02:08:10;;;;;;;19.20;7.57;;;;;;;;;;5020377;28;20451;-64
2021/07/02 02:10:35;;;;;;;12.50;7.22;;;;;;;;;;5018879;28;20041;-65
2021/07/02 02:13:01;;;;;;;13.75;6.53;;;;;;;;;;5015243;28;20096;-64
2021/07/02 02:15:26;;;;;;;15.40;7.10;;;;;;;;;;5010906;28;20029;-66
2021/07/02 02:17:52;;;;;;;13.63;6.53;;;;;;;;;;5017258;28;20505;-65
2021/07/02 02:20:18;;;;;;;12.80;6.10;;;;;;;;;;5022283;28;20518;-66
2021/07/02 02:22:43;;;;;;;12.75;6.18;;;;;;;;;;5018124;28;20124;-66
2021/07/02 02:25:10;;;;;;;13.18;7.10;;;;;;;;;;5020962;28;20072;-65
2021/07/02 02:27:37;;;;;;;15.80;6.60;;;;;;;;;;5020261;28;20056;-65
2021/07/02 02:30:05;;;;;;;15.30;6.78;;;;;;;;;;5017306;28;20516;-66
2021/07/02 02:32:31;;;;;;;11.70;6.22;;;;;;;;;;5019766;28;20026;-62
2021/07/02 02:34:56;;;;;;;14.32;6.35;;;;;;;;;;5015456;28;20042;-62
2021/07/02 02:37:22;;;;;;;14.02;5.93;;;;;;;;;;5012397;28;20095;-61
2021/07/02 02:39:47;;;;;;;12.95;6.22;;;;;;;;;;5021627;28;20048;-61
2021/07/02 02:42:13;;;;;;;12.45;5.95;;;;;;;;;;5021688;28;20481;-60
2021/07/02 02:44:38;;;;;;;11.15;6.15;;;;;;;;;;5019858;28;20035;-61
2021/07/02 02:47:04;;;;;;;10.30;6.03;;;;;;;;;;5022077;28;20032;-60
2021/07/02 02:49:29;;;;;;;11.68;6.65;;;;;;;;;;5018826;28;20124;-61
2021/07/02 02:51:55;;;;;;;10.85;5.53;;;;;;;;;;5020097;28;20072;-61
2021/07/02 02:54:20;;;;;;;14.48;6.93;;;;;;;;;;5020904;28;20317;-61
2021/07/02 02:57:04;;;;;;;12.20;6.32;;;;;;;;;;5018908;28;20101;-61
2021/07/02 02:59:34;;;;;;;9.55;6.07;;;;;;;;;;5011294;28;20040;-61
2021/07/02 03:01:59;;;;;;;14.43;6.63;;;;;;;;;;5015537;28;20033;-60
2021/07/02 03:04:25;;;;;;;12.88;6.50;;;;;;;;;;5009666;28;20032;-66
2021/07/02 03:06:51;;;;;;;15.68;7.10;;;;;;;;;;5024220;28;20033;-64
2021/07/02 03:09:17;;;;;;;11.23;6.15;;;;;;;;;;5016110;28;20029;-65
2021/07/02 03:11:44;;;;;;;10.85;6.90;;;;;;;;;;5017306;28;20036;-65
2021/07/02 03:14:10;;;;;;;12.55;6.10;;;;;;;;;;5013558;28;20041;-65
2021/07/02 03:16:36;;;;;;;10.43;6.10;;;;;;;;;;5013667;28;20032;-65
2021/07/02 03:19:01;;;;;;;20.50;6.10;;;;;;;;;;5018865;28;20029;-65
2021/07/02 03:21:27;;;;;;;11.35;6.18;;;;;;;;;;5012086;28;20416;-65
2021/07/02 03:23:52;;;;;;;15.18;7.03;;;;;;;;;;5011487;28;20061;-65
2021/07/02 03:26:17;;;;;;;11.82;6.40;;;;;;;;;;5017080;28;20060;-65
2021/07/02 03:28:44;;;;;;;10.50;5.93;;;;;;;;;;5018942;28;20033;-65
2021/07/02 03:31:09;;;;;;;10.38;6.15;;;;;;;;;;5016246;28;20029;-65
2021/07/02 03:33:35;;;;;;;10.98;6.13;;;;;;;;;;5018015;28;20029;-65
2021/07/02 03:36:01;;;;;;;11.13;5.28;;;;;;;;;;5013418;28;20026;-65
2021/07/02 03:38:26;;;;;;;10.40;5.95;;;;;;;;;;5013377;28;20030;-65
2021/07/02 03:40:52;;;;;;;13.23;5.78;;;;;;;;;;5016157;28;20034;-65
2021/07/02 03:43:17;;;;;;;9.38;5.10;;;;;;;;;;5019184;28;20037;-65
2021/07/02 03:45:43;;;;;;;10.18;5.70;;;;;;;;;;5022327;28;20156;-64
2021/07/02 03:48:09;;;;;;;11.88;5.70;;;;;;;;;;5004696;28;20033;-65
2021/07/02 03:50:34;;;;;;;12.77;6.05;;;;;;;;;;5013149;28;20125;-65
2021/07/02 03:53:00;;;;;;;15.80;5.82;;;;;;;;;;5015624;28;20234;-64
2021/07/02 03:55:25;;;;;;;12.20;6.00;;;;;;;;;;5019056;28;20033;-65
2021/07/02 03:57:51;;;;;;;10.10;5.68;;;;;;;;;;5018763;28;20112;-65
2021/07/02 04:00:16;;;;;;;12.15;5.53;;;;;;;;;;5020103;28;20021;-64
2021/07/02 04:02:42;;;;;;;10.88;5.32;;;;;;;;;;5020573;28;20432;-64
2021/07/02 04:05:08;;;;;;;10.90;6.05;;;;;;;;;;5024346;28;20048;-65
2021/07/02 04:07:33;;;;;;;12.60;5.95;;;;;;;;;;5016500;28;20026;-64
2021/07/02 04:09:59;;;;;;;11.27;5.55;;;;;;;;;;5019369;28;20029;-65
2021/07/02 04:12:25;;;;;;;14.40;6.65;;;;;;;;;;5014395;28;20068;-65
2021/07/02 04:14:50;;;;;;;11.05;5.53;;;;;;;;;;5019795;28;20455;-64
2021/07/02 04:17:16;;;;;;;14.10;6.13;;;;;;;;;;5014658;28;20060;-65
2021/07/02 04:19:41;;;;;;;14.23;6.00;;;;;;;;;;5024718;28;20033;-64
2021/07/02 04:22:08;;;;;;;11.15;5.97;;;;;;;;;;5029065;28;20058;-64
2021/07/02 04:24:33;;;;;;;10.43;6.03;;;;;;;;;;5021820;28;20026;-64
2021/07/02 04:26:59;;;;;;;11.88;5.97;;;;;;;;;;5020588;28;20444;-64
2021/07/02 04:29:26;;;;;;;13.98;5.55;;;;;;;;;;5018088;28;20037;-65
2021/07/02 04:31:51;;;;;;;13.02;5.68;;;;;;;;;;5020327;28;20042;-65
2021/07/02 04:34:17;;;;;;;9.45;5.32;;;;;;;;;;5015686;28;20026;-65
2021/07/02 04:36:43;;;;;;;7.65;5.03;;;;;;;;;;5016507;28;20144;-65
2021/07/02 04:39:09;;;;;;;12.15;5.30;;;;;;;;;;5025839;28;20108;-65
2021/07/02 04:41:34;;;;;;;12.45;5.68;;;;;;;;;;5017523;28;20514;-65
2021/07/02 04:44:00;;;;;;;11.65;5.53;;;;;;;;;;5017949;28;20045;-65
2021/07/02 04:46:25;;;;;;;13.40;5.47;;;;;;;;;;5014304;28;20103;-65
2021/07/02 04:48:51;;;;;;;10.32;5.32;;;;;;;;;;5021105;28;20037;-65
2021/07/02 04:51:16;;;;;;;13.30;5.85;;;;;;;;;;5017870;28;20093;-65
2021/07/02 04:53:43;;;;;;;15.00;6.32;;;;;;;;;;5014702;28;20331;-64
2021/07/02 04:56:13;;;;;;;11.40;5.75;;;;;;;;;;5018175;28;20368;-65
2021/07/02 04:58:42;;;;;;;9.05;5.50;;;;;;;;;;5015697;28;20280;-65
2021/07/02 05:01:08;;;;;;;14.70;7.30;;;;;;;;;;5016043;28;20025;-65
2021/07/02 05:03:34;;;;;;;12.38;6.30;;;;;;;;;;5016778;28;20504;-65
2021/07/02 05:06:03;;;;;;;10.30;5.30;;;;;;;;;;5012806;28;20037;-65
2021/07/02 05:08:29;;;;;;;11.93;5.90;;;;;;;;;;5016759;28;20029;-65
2021/07/02 05:10:54;;;;;;;10.07;5.82;;;;;;;;;;5013995;28;20444;-65
2021/07/02 05:13:20;;;;;;;15.77;6.45;;;;;;;;;;5017160;28;20105;-64
2021/07/02 05:15:47;;;;;;;13.57;5.80;;;;;;;;;;5017284;28;20369;-65
2021/07/02 05:18:13;;;;;;;11.82;6.03;;;;;;;;;;5013960;28;20036;-65
2021/07/02 05:20:43;;;;;;;12.65;6.35;;;;;;;;;;5020905;28;20033;-65
2021/07/02 05:23:08;;;;;;;15.60;5.80;;;;;;;;;;5014273;28;20124;-65
2021/07/02 05:25:34;;;;;;;13.40;5.72;;;;;;;;;;5011870;28;20128;-64
2021/07/02 05:27:59;;;;;;;16.23;6.95;;;;;;;;;;5020669;28;20501;-65
2021/07/02 05:30:26;;;;;;;16.00;6.05;;;;;;;;;;5010719;28;20041;-65
2021/07/02 05:32:52;;;;;;;18.20;7.78;;;;;;;;;;5014921;28;20040;-65
2021/07/02 05:35:17;;;;;;;14.00;6.45;;;;;;;;;;5014561;28;20033;-65
2021/07/02 05:37:44;;;;;;;11.77;6.57;;;;;;;;;;5016590;28;20034;-65
2021/07/02 05:40:15;;;;;;;15.18;7.22;;;;;;;;;;5010159;28;20064;-65
2021/07/02 05:42:42;;;;;;;12.60;6.13;;;;;;;;;;5009560;28;20389;-66
2021/07/02 05:45:09;;;;;;;17.50;6.75;;;;;;;;;;5017173;28;20028;-65
2021/07/02 05:47:40;;;;;;;13.20;7.35;;;;;;;;;;5021263;28;20488;-65
2021/07/02 05:50:06;;;;;;;18.73;8.73;;;;;;;;;;5013014;28;20038;-64
2021/07/02 05:52:33;;;;;;;25.95;9.30;;;;;;;;;;5015663;28;20054;-64
2021/07/02 05:55:00;;;;;;;17.70;8.27;;;;;;;;;;5013195;28;20037;-64
2021/07/02 05:57:26;;;;;;;20.55;8.23;;;;;;;;;;5009665;28;20413;-64
2021/07/02 05:59:51;;;;;;;19.08;8.23;;;;;;;;;;5014536;28;20038;-63
2021/07/02 06:02:17;;;;;;;20.92;8.82;;;;;;;;;;5008896;28;20084;-63
2021/07/02 06:04:42;;;;;;;25.45;9.27;;;;;;;;;;5014266;28;20041;-64
2021/07/02 06:07:08;;;;;;;20.20;8.75;;;;;;;;;;5019330;28;20116;-63
2021/07/02 06:09:35;;;;;;;17.88;8.35;;;;;;;;;;5012744;28;20032;-63
2021/07/02 06:12:02;;;;;;;16.90;8.65;;;;;;;;;;5021270;28;20029;-64
2021/07/02 06:14:29;;;;;;;17.92;7.82;;;;;;;;;;5011893;28;20353;-63
2021/07/02 06:16:55;;;;;;;16.33;7.70;;;;;;;;;;5016946;28;20524;-64
2021/07/02 06:19:20;;;;;;;16.67;7.50;;;;;;;;;;5011746;28;20425;-64
2021/07/02 06:21:46;;;;;;;16.48;8.02;;;;;;;;;;5018328;28;20277;-63
2021/07/02 06:24:11;;;;;;;15.30;7.65;;;;;;;;;;5011971;28;20044;-64
2021/07/02 06:26:37;;;;;;;17.55;8.15;;;;;;;;;;5018753;28;20104;-63
2021/07/02 06:29:02;;;;;;;17.92;8.45;;;;;;;;;;5011991;28;20103;-63
2021/07/02 06:31:28;;;;;;;22.92;9.20;;;;;;;;;;5013716;28;20233;-63
2021/07/02 06:33:53;;;;;;;21.20;8.35;;;;;;;;;;5016910;28;20029;-63
2021/07/02 06:36:19;;;;;;;19.95;8.52;;;;;;;;;;5020138;28;20576;-63
2021/07/02 06:38:44;;;;;;;18.38;8.68;;;;;;;;;;5011384;28;20037;-64
2021/07/02 06:41:10;;;;;;;25.10;10.18;;;;;;;;;;5011601;28;20037;-63
2021/07/02 06:43:35;;;;;;;20.92;8.93;;;;;;;;;;5013341;28;20115;-64
2021/07/02 06:46:01;;;;;;;19.13;8.90;;;;;;;;;;5021167;28;20030;-63
2021/07/02 06:48:26;;;;;;;21.98;9.27;;;;;;;;;;5012936;28;20033;-63
2021/07/02 06:50:55;;;;;;;20.13;9.10;;;;;;;;;;5018379;28;20041;-64
2021/07/02 06:53:21;;;;;;;19.65;8.65;;;;;;;;;;5021642;28;20025;-64
2021/07/02 06:55:47;;;;;;;21.42;8.80;;;;;;;;;;5018354;28;20548;-64
2021/07/02 06:58:12;;;;;;;17.67;8.52;;;;;;;;;;5025664;28;20022;-64
2021/07/02 07:00:39;;;;;;;21.00;9.25;;;;;;;;;;5020281;28;20431;-64
2021/07/02 07:03:05;;;;;;;20.48;8.77;;;;;;;;;;5005540;28;20530;-64
2021/07/02 07:05:31;;;;;;;17.08;8.95;;;;;;;;;;5017835;28;20022;-64
2021/07/02 07:07:56;;;;;;;19.50;8.13;;;;;;;;;;5015020;28;20052;-64
2021/07/02 07:10:22;;;;;;;15.65;8.05;;;;;;;;;;5018584;28;20663;-64
2021/07/02 07:12:47;;;;;;;20.30;9.63;;;;;;;;;;5019987;28;20028;-63
2021/07/02 07:15:14;;;;;;;15.48;8.30;;;;;;;;;;5017056;28;20037;-64
2021/07/02 07:17:39;;;;;;;16.25;8.35;;;;;;;;;;5016469;28;20033;-63
2021/07/02 07:20:05;;;;;;;22.95;8.25;;;;;;;;;;5014633;28;20044;-63
2021/07/02 07:22:32;;;;;;;20.83;8.23;;;;;;;;;;5020735;28;20037;-64
2021/07/02 07:24:58;;;;;;;16.98;8.13;;;;;;;;;;5016763;28;20141;-64
2021/07/02 07:27:23;;;;;;;20.55;8.07;;;;;;;;;;5014984;28;20512;-63
2021/07/02 07:29:49;;;;;;;14.13;7.18;;;;;;;;;;5015433;28;20605;-63
2021/07/02 07:32:14;;;;;;;23.20;8.02;;;;;;;;;;4992635;28;20044;-64
2021/07/02 07:34:50;;;;;;;17.48;7.38;;;;;;;;;;5010250;28;20038;-64
2021/07/02 07:37:19;;;;;;;13.82;7.10;;;;;;;;;;5014146;28;20042;-63
2021/07/02 07:39:45;;;;;;;20.17;7.60;;;;;;;;;;5015068;28;20739;-63
2021/07/02 07:42:11;;;;;;;23.77;7.88;;;;;;;;;;5011048;28;20485;-64
2021/07/02 07:44:36;;;;;;;17.00;7.13;;;;;;;;;;5010708;28;20045;-64
2021/07/02 07:47:02;;;;;;;13.75;6.72;;;;;;;;;;5012095;28;20254;-63
2021/07/02 07:49:27;;;;;;;20.85;7.43;;;;;;;;;;5017392;28;20030;-64
2021/07/02 07:54:21;;;;;;;17.20;6.40;;;;;;;;;;5010783;28;20499;-64
2021/07/02 07:56:50;;;;;;;15.63;7.00;;;;;;;;;;5012094;28;20040;-63
2021/07/02 07:59:21;;;;;;;21.40;6.05;;;;;;;;;;5013311;28;20025;-64
2021/07/02 08:01:46;;;;;;;18.20;7.05;;;;;;;;;;5014592;28;20018;-64
2021/07/02 08:04:14;;;;;;;14.88;6.95;;;;;;;;;;5014838;28;20025;-64
2021/07/02 08:06:44;;;;;;;11.02;7.18;;;;;;;;;;5017919;28;20029;-64
2021/07/02 08:09:11;;;;;;;12.88;6.43;;;;;;;;;;5018395;28;20565;-64
2021/07/02 08:11:38;;;;;;;15.68;6.68;;;;;;;;;;5011171;28;20061;-64
2021/07/02 08:14:04;;;;;;;13.57;6.60;;;;;;;;;;5021261;28;20029;-60
2021/07/02 08:16:30;;;;;;;11.85;6.35;;;;;;;;;;5017738;28;20033;-61
2021/07/02 08:18:55;;;;;;;12.10;6.20;;;;;;;;;;5015203;28;20091;-61
2021/07/02 08:21:21;;;;;;;10.85;6.60;;;;;;;;;;5013800;28;20038;-61
2021/07/02 08:23:46;;;;;;;11.23;6.50;;;;;;;;;;5016635;28;20504;-60
2021/07/02 08:26:12;;;;;;;13.55;6.70;;;;;;;;;;5015886;28;20037;-61
2021/07/02 08:31:24;;;;;;;11.50;6.43;;;;;;;;;;5012887;28;20050;-61
2021/07/02 08:33:49;;;;;;;14.90;6.70;;;;;;;;;;5011059;28;20041;-61
2021/07/02 08:36:15;;;;;;;13.35;6.50;;;;;;;;;;5014257;28;20030;-59
2021/07/02 08:38:40;;;;;;;12.68;5.88;;;;;;;;;;5020127;28;20476;-60
2021/07/02 08:41:11;;;;;;;13.57;6.45;;;;;;;;;;5018905;28;20259;-61
2021/07/02 08:43:37;;;;;;;19.02;6.03;;;;;;;;;;5017447;28;20041;-64
2021/07/02 08:46:03;;;;;;;11.60;6.45;;;;;;;;;;5017946;28;20034;-64
2021/07/02 08:48:29;;;;;;;16.60;6.80;;;;;;;;;;5011102;28;20021;-64
2021/07/02 08:50:55;;;;;;;14.00;6.13;;;;;;;;;;5010957;28;20396;-64
2021/07/02 08:53:21;;;;;;;13.63;6.32;;;;;;;;;;5013852;28;20037;-64
2021/07/02 08:55:46;;;;;;;17.67;6.65;;;;;;;;;;5011589;28;20037;-64
2021/07/02 08:58:13;;;;;;;12.38;5.60;;;;;;;;;;5013595;28;20036;-64
2021/07/02 09:00:40;;;;;;;19.08;6.82;;;;;;;;;;5014094;28;20113;-64
2021/07/02 09:03:24;;;;;;;12.35;6.30;;;;;;;;;;5014735;28;20037;-64
2021/07/02 09:05:50;;;;;;;9.45;6.13;;;;;;;;;;5014060;28;20112;-63
2021/07/02 09:08:16;;;;;;;13.77;6.88;;;;;;;;;;5011734;28;20117;-64
2021/07/02 09:10:42;;;;;;;15.68;7.35;;;;;;;;;;5013975;28;20025;-64
2021/07/02 09:13:08;;;;;;;13.30;6.80;;;;;;;;;;5011576;28;20037;-61
2021/07/02 09:15:48;;;;;;;9.35;6.07;;;;;;;;;;5018369;28;20442;-60
2021/07/02 09:18:15;;;;;;;11.02;6.80;;;;;;;;;;5016576;28;20603;-60
2021/07/02 09:20:43;;;;;;;13.73;5.60;;;;;;;;;;5013419;28;20579;-59
2021/07/02 09:23:13;;;;;;;10.93;6.70;;;;;;;;;;5010357;28;20410;-60
2021/07/02 09:25:46;;;;;;;10.32;6.43;;;;;;;;;;5014970;28;20523;-60
2021/07/02 09:28:15;;;;;;;11.88;6.07;;;;;;;;;;5012022;28;20022;-60
2021/07/02 09:30:42;;;;;;;10.98;6.53;;;;;;;;;;5013386;28;20034;-60
2021/07/02 09:33:16;;;;;;;15.43;7.10;;;;;;;;;;5009417;28;20447;-60
2021/07/02 09:35:48;;;;;;;14.15;6.43;;;;;;;;;;5013896;28;20036;-60
2021/07/02 09:38:19;;;;;;;14.73;6.90;;;;;;;;;;5016719;28;20025;-60
2021/07/02 09:40:47;;;;;;;10.60;6.50;;;;;;;;;;5014301;28;20037;-60
2021/07/02 09:43:17;;;;;;;11.15;6.43;;;;;;;;;;5020236;28;20106;-64
2021/07/02 09:45:53;;;;;;;15.43;7.07;;;;;;;;;;5017884;28;20038;-64
2021/07/02 09:48:21;;;;;;;11.73;6.43;;;;;;;;;;5017821;28;20079;-64
2021/07/02 09:50:54;;;;;;;9.25;6.45;;;;;;;;;;5020008;28;20033;-65
2021/07/02 09:53:24;;;;;;;16.08;7.20;;;;;;;;;;5014339;28;20517;-65
2021/07/02 09:55:53;;;;;;;15.65;6.80;;;;;;;;;;5013566;28;20037;-65
2021/07/02 09:58:20;;;;;;;11.80;6.65;;;;;;;;;;5014534;28;20033;-65
2021/07/02 10:00:51;;;;;;;16.05;6.82;;;;;;;;;;5010425;28;20030;-65
2021/07/02 10:03:24;;;;;;;15.73;7.77;;;;;;;;;;5016401;28;20037;-65
2021/07/02 10:05:54;;;;;;;13.73;6.57;;;;;;;;;;5019606;28;20037;-65
2021/07/02 10:08:31;;;;;;;15.73;7.30;;;;;;;;;;5019393;28;20029;-65
2021/07/02 10:10:58;;;;;;;18.45;6.85;;;;;;;;;;5015034;28;20110;-65
2021/07/02 10:13:27;;;;;;;15.52;6.70;;;;;;;;;;5014894;28;20378;-65
2021/07/02 10:15:54;;;;;;;23.25;7.20;;;;;;;;;;5009939;28;20044;-65
2021/07/02 10:18:21;;;;;;;14.55;7.18;;;;;;;;;;5016212;28;20036;-65
2021/07/02 10:20:47;;;;;;;8.93;6.68;;;;;;;;;;5018891;28;20541;-64
2021/07/02 10:23:39;;;;;;;18.90;7.50;;;;;;;;;;5016486;28;20041;-63
2021/07/02 10:26:07;;;;;;;14.75;7.00;;;;;;;;;;5010671;28;20324;-64
2021/07/02 10:28:36;;;;;;;14.40;6.97;;;;;;;;;;5016499;28;20048;-64
2021/07/02 10:31:02;;;;;;;13.77;7.18;;;;;;;;;;5017545;28;20036;-66
2021/07/02 10:33:30;;;;;;;17.00;6.72;;;;;;;;;;5014908;28;20113;-65
2021/07/02 10:35:58;;;;;;;12.70;7.00;;;;;;;;;;5018269;28;20057;-65
2021/07/02 10:38:36;;;;;;;15.20;7.78;;;;;;;;;;5020496;28;20057;-65
2021/07/02 10:41:10;;;;;;;11.45;6.95;;;;;;;;;;5015456;28;20257;-65
2021/07/02 10:43:35;;;;;;;18.80;7.20;;;;;;;;;;5016213;28;20492;-64
2021/07/02 10:46:07;;;;;;;16.33;6.82;;;;;;;;;;5020447;28;20068;-65
2021/07/02 10:48:58;;;;;;;9.82;6.88;;;;;;;;;;5018458;28;20105;-64
2021/07/02 10:51:34;;;;;;;11.40;6.75;;;;;;;;;;5020883;28;20487;-64
2021/07/02 10:54:12;;;;;;;10.70;7.40;;;;;;;;;;5018375;28;20431;-64
2021/07/02 10:56:38;;;;;;;15.32;7.05;;;;;;;;;;5021313;28;20021;-65
2021/07/02 10:59:08;;;;;;;16.38;7.03;;;;;;;;;;5014797;28;20120;-66
2021/07/02 11:01:33;;;;;;;10.88;6.30;;;;;;;;;;5020059;28;20163;-66
2021/07/02 11:04:33;;;;;;;14.85;7.78;;;;;;;;;;5018658;28;20509;-66
2021/07/02 11:06:59;;;;;;;12.90;7.13;;;;;;;;;;5013211;28;20021;-66
2021/07/02 11:10:03;;;;;;;15.38;7.43;;;;;;;;;;5017466;28;20059;-65
2021/07/02 11:12:33;;;;;;;14.55;7.60;;;;;;;;;;5018927;28;20038;-65
2021/07/02 11:14:58;;;;;;;16.48;7.05;;;;;;;;;;5016567;28;20041;-64
2021/07/02 11:17:24;;;;;;;16.95;7.05;;;;;;;;;;5019823;28;20084;-64
2021/07/02 11:20:10;;;;;;;16.65;8.13;;;;;;;;;;5019524;28;20118;-65
2021/07/02 11:22:53;;;;;;;14.02;8.13;;;;;;;;;;5019354;28;20052;-66
2021/07/02 11:25:42;;;;;;;13.13;7.90;;;;;;;;;;5023469;28;20033;-66
2021/07/02 11:28:09;;;;;;;12.85;8.25;;;;;;;;;;5018364;28;20519;-66
2021/07/02 11:30:40;;;;;;;17.50;8.18;;;;;;;;;;5014068;28;20048;-65
2021/07/02 11:33:09;;;;;;;17.33;8.20;;;;;;;;;;5015303;28;20057;-66
2021/07/02 11:35:50;;;;;;;15.75;8.95;;;;;;;;;;5021101;28;20022;-65
2021/07/02 11:38:16;;;;;;;22.50;8.70;;;;;;;;;;5018086;28;20041;-66
2021/07/02 11:40:54;;;;;;;16.90;8.98;;;;;;;;;;5014489;28;20050;-66
2021/07/02 11:43:30;;;;;;;18.25;8.52;;;;;;;;;;5018643;28;20040;-61
2021/07/02 11:46:07;;;;;;;17.33;8.07;;;;;;;;;;5018120;28;20040;-61
2021/07/02 11:48:34;;;;;;;16.05;9.65;;;;;;;;;;5012169;28;20027;-62
2021/07/02 11:51:05;;;;;;;15.38;8.10;;;;;;;;;;5014531;28;20038;-62
2021/07/02 11:53:33;;;;;;;17.30;8.75;;;;;;;;;;5020680;28;20081;-58
2021/07/02 11:56:05;;;;;;;18.30;9.52;;;;;;;;;;5020991;28;20084;-57
2021/07/02 11:58:32;;;;;;;;;;;;;;;;;;5013071;28;20029;-58
2021/07/02 12:01:04;;;;;;;20.80;10.75;;;;;;;;;;5021421;28;19921;-58
2021/07/02 12:03:30;;;;;;;;;;;;;;;;;;5015663;28;20508;-58
2021/07/02 12:05:58;;;;;;;20.15;10.27;;;;;;;;;;5023199;28;19920;-58
2021/07/02 12:08:25;;;;;;;17.73;9.07;;;;;;;;;;5019373;28;20075;-58
2021/07/02 12:11:00;;;;;;;18.42;9.27;;;;;;;;;;5016662;28;20029;-59
2021/07/02 12:13:27;;;;;;;17.35;9.90;;;;;;;;;;5014250;28;20061;-63
2021/07/02 12:16:03;;;;;;;24.38;9.18;;;;;;;;;;5015386;28;20036;-63
2021/07/02 12:18:29;;;;;;;15.35;7.95;;;;;;;;;;5022593;28;20029;-62
2021/07/02 12:21:09;;;;;;;21.50;9.82;;;;;;;;;;5020395;28;20127;-63
2021/07/02 12:23:43;;;;;;;14.75;8.98;;;;;;;;;;5018536;28;20025;-63
2021/07/02 12:26:13;;;;;;;18.17;10.20;;;;;;;;;;5013612;28;20041;-63
2021/07/02 12:29:08;;;;;;;14.10;8.93;;;;;;;;;;5023079;28;20480;-63
2021/07/02 12:31:41;;;;;;;15.68;7.90;;;;;;;;;;5018724;28;20037;-63
2021/07/02 12:34:11;;;;;;;23.35;8.80;;;;;;;;;;5020148;28;20080;-63
2021/07/02 12:37:15;;;;;;;15.50;9.02;;;;;;;;;;5014994;28;20033;-64
2021/07/02 12:39:43;;;;;;;17.55;8.65;;;;;;;;;;5021593;28;20112;-65
2021/07/02 12:42:30;;;;;;;16.90;8.40;;;;;;;;;;5020665;28;20025;-64
2021/07/02 12:45:15;;;;;;;15.23;7.30;;;;;;;;;;5014664;28;20058;-63
2021/07/02 12:47:42;;;;;;;17.45;8.90;;;;;;;;;;5013819;28;20370;-63
2021/07/02 12:50:21;;;;;;;17.23;9.20;;;;;;;;;;5015121;28;20025;-62
2021/07/02 12:55:39;;;;;;;16.48;8.90;;;;;;;;;;5014850;28;20091;-64
2021/07/02 12:58:05;;;;;;;16.98;8.13;;;;;;;;;;5022193;28;20029;-71
2021/07/02 13:00:33;;;;;;;17.63;8.60;;;;;;;;;;5015447;28;20063;-71
2021/07/02 13:03:06;;;;;;;19.08;8.93;;;;;;;;;;5017308;28;20025;-62
2021/07/02 13:05:38;;;;;;;22.85;8.93;;;;;;;;;;5025906;28;20025;-62
2021/07/02 13:08:09;;;;;;;14.63;9.07;;;;;;;;;;5019162;28;20060;-63
2021/07/02 13:10:39;;;;;;;16.97;9.03;;;;;;;;;;5021731;28;20452;-62
2021/07/02 13:13:21;;;;;;;21.38;10.05;;;;;;;;;;5014202;28;20033;-59
2021/07/02 13:15:49;;;;;;;20.10;9.73;;;;;;;;;;5014009;28;20033;-59
2021/07/02 13:18:42;;;;;;;18.42;9.85;;;;;;;;;;5012462;28;20022;-60
2021/07/02 13:21:27;;;;;;;15.35;9.35;;;;;;;;;;5020603;28;20049;-60
2021/07/02 13:23:55;;;;;;;21.55;9.10;;;;;;;;;;5013997;28;20063;-56
2021/07/02 13:26:23;;;;;;;15.02;9.02;;;;;;;;;;5011667;28;20105;-56
2021/07/02 13:29:00;;;;;;;16.48;8.35;;;;;;;;;;5019300;28;20044;-56
2021/07/02 13:31:33;;;;;;;14.63;8.10;;;;;;;;;;5016053;28;20022;-56
2021/07/02 13:34:16;;;;;;;16.98;8.60;;;;;;;;;;5009891;28;20497;-56
2021/07/02 13:36:53;;;;;;;16.25;8.00;;;;;;;;;;5008300;28;22347;-57
2021/07/02 13:39:21;;;;;;;13.20;8.65;;;;;;;;;;5010088;28;20496;-56
2021/07/02 13:42:06;;;;;;;15.05;8.82;;;;;;;;;;5014383;28;20025;-56
2021/07/02 13:44:37;;;;;;;17.17;8.02;;;;;;;;;;5014463;28;20021;-63
2021/07/02 13:47:10;;;;;;;11.45;8.48;;;;;;;;;;5018976;28;20499;-63
2021/07/02 13:49:38;;;;;;;15.90;8.15;;;;;;;;;;5021248;28;20026;-63
2021/07/02 13:52:05;;;;;;;18.02;7.20;;;;;;;;;;5015885;28;20496;-63
2021/07/02 13:54:31;;;;;;;14.43;7.32;;;;;;;;;;5012347;28;20029;-62
2021/07/02 13:56:58;;;;;;;17.20;7.80;;;;;;;;;;5012103;28;20026;-62
2021/07/02 13:59:24;;;;;;;13.80;7.63;;;;;;;;;;5012645;28;20044;-62
2021/07/02 14:01:49;;;;;;;14.63;6.72;;;;;;;;;;5014923;28;20345;-61
2021/07/02 14:04:15;;;;;;;10.35;6.60;;;;;;;;;;5012822;28;20090;-62
2021/07/02 14:06:41;;;;;;;12.00;5.88;;;;;;;;;;5022306;28;20362;-61
2021/07/02 14:09:11;;;;;;;10.85;5.88;;;;;;;;;;5018196;28;20041;-62
2021/07/02 14:11:38;;;;;;;10.93;5.15;;;;;;;;;;5011975;28;20062;-61
2021/07/02 14:14:05;;;;;;;13.70;5.40;;;;;;;;;;5016247;28;20022;-62
2021/07/02 14:16:31;;;;;;;8.50;4.57;;;;;;;;;;5017717;28;20037;-62
2021/07/02 14:18:56;;;;;;;7.63;4.45;;;;;;;;;;5019881;28;20037;-63
2021/07/02 14:21:22;;;;;;;10.80;4.40;;;;;;;;;;5020207;28;20042;-62
2021/07/02 14:23:48;;;;;;;10.20;4.30;;;;;;;;;;5023865;28;20532;-63
2021/07/02 14:26:13;;;;;;;6.50;3.83;;;;;;;;;;5020506;28;20075;-65
2021/07/02 14:28:39;;;;;;;6.07;3.03;;;;;;;;;;5019525;28;20036;-66
2021/07/02 14:31:05;;;;;;;6.65;3.35;;;;;;;;;;5027828;28;20488;-65
2021/07/02 14:33:31;;;;;;;10.15;3.22;;;;;;;;;;5020846;28;20033;-65
2021/07/02 14:35:56;;;;;;;9.73;2.90;;;;;;;;;;5021138;28;20029;-65
2021/07/02 14:38:22;;;;;;;14.85;3.10;;;;;;;;;;5025023;28;20051;-65
2021/07/02 14:40:48;;;;;;;7.20;2.80;;;;;;;;;;5023636;28;20543;-66
2021/07/02 14:43:14;;;;;;;8.02;2.95;;;;;;;;;;5025126;28;20040;-66
2021/07/02 14:45:40;;;;;;;5.85;3.15;;;;;;;;;;5019219;28;20108;-66